Accueil
METAR-TAF:

METAR-TAF

Aéroports :

Aéroport de Lorient-Bretagne-Sud - BAN Lann-Bihoué

Lorient, France

latitude: 47-46N, longitude: 003-27W, altitude: 52 m

Observation

Le bulletin a été fait il y a 17 minutes, à 17:00 UTC
Vent 12 kt de nord-est
Température 7°C
Humidité 61%
Pression 1027 hPa
Visibilité 10 km ou plus
Ciel couvert à une hauteur de 3500 ft

METAR: LFRH 051700Z AUTO 04012KT 9999 OVC035 07/M00 Q1027 NOSIG

Heure: 18:17 (17:17 UTC)

Prévision

Le bulletin a été fait il y a 6 heures et 17 minutes, à 11:00 UTC
Prévision valable du 05 à 12 UTC au 06 à 12 UTC
Vent 15 kt de nord-est
Visibilité 10 km ou plus
Nuages fragmentés à une hauteur de 3000 ft

TAF: LFRH 051100Z 0512/0612 05015KT 9999 BKN030

Observations et prévisions météorologiques de plus de 4000 aéroports (messages METAR et TAF).

Les stations disponibles sont représentées par des disques jaunes et rouges sur la carte.

Passer la souris dessus pour voir le nom de la station.

Cliquer dessus pour voir les observations et prévisions météorologiques.

Pour changer de carte: cliquez sur les boutons verts avec une croix noire pour zoomer, sur le bouton vert avec un tiret pour effectuer un zoom arrière, ou sur les flèches vertes pour les cartes adjacentes.


METAR-TAF: